航空気象通報

ウインドサーファーのための航空気象通報による風予報です。

7/29-30の航空気象通報(国内、海外)

2009年07月29日 23時40分38秒 | TAF
羽田空港
TAF RJTT 290839Z 2909/3012 20015KT 9999 FEW010 SCT030
TEMPO 2909/2913 20017G27KT
TEMPO 2918/2921 SCT005 BKN008
日本時間29日18時-30日21時:200度から15ノットの風
但し、29日18-22時の間:一時、200度から17ノット、突風27ノット

30日03-06時の間:一時、

那覇空港
TAF ROAH 290848Z 2909/3012 36006KT 9999 FEW015
日本時間29日18時-30日21時:360度から6ノットの風


マウイのカフルイ空港
PHOG 291129Z 2912/3012 04012KT P6SM SCT060
FM292100 06020G28KT P6SM FEW040 SCT060
FM300600 04012KT P6SM FEW060
ハワイ時間29日02-11時:040度から12ノットの風
11-20時:060度から20ノット、突風28ノット
20時-30日02時:040度から12ノットの風


サイパン空港
PGSN 291120Z 2912/3012 14011KT P6SM VCSH SCT020 BKN100
TEMPO 2913/2917 -SHRA SCT015CB BKN035
マリアナ時間29日22時-30日22時:140度から11ノットの風

但し、29日23時-30日03時の間:一時、
ジャンル:
お天気
コメント   この記事についてブログを書く
« 7/28-29の航空気象通報(国内... | トップ | 7/30-31の航空気象通報(国内... »
最近の画像もっと見る

コメントを投稿

ブログ作成者から承認されるまでコメントは反映されません。

TAF」カテゴリの最新記事